Time;durP1;ratioP1;P1;durP2;ratioP2;P2;SDS_P1;SDS_P2;PMS_P1;PMS_P2;Temp;Humidity;BMP_temperature;BMP_pressure;BME280_temperature;BME280_humidity;BME280_pressure;Samples;Min_cycle;Max_cycle;Signal;HPM_P1;HPM_P2
2023/12/13 00:01:38;;;;;;;7.78;4.00;;;;;;;-2.48;100.00;100873.44;5036934;28;20029;-80
2023/12/13 00:04:03;;;;;;;7.03;4.32;;;;;;;-2.31;100.00;100898.53;5035137;28;20562;-81
2023/12/13 00:06:31;;;;;;;6.28;3.95;;;;;;;-2.34;100.00;100895.31;5035168;28;20045;-81
2023/12/13 00:08:56;;;;;;;7.88;4.38;;;;;;;-2.38;100.00;100899.97;5035245;28;20052;-80
2023/12/13 00:11:22;;;;;;;5.82;4.15;;;;;;;-2.49;100.00;100878.81;5018284;28;20033;-81
2023/12/13 00:13:47;;;;;;;5.65;4.22;;;;;;;-2.56;100.00;100870.53;5035033;28;20041;-80
2023/12/13 00:16:13;;;;;;;6.18;4.13;;;;;;;-2.40;100.00;100889.50;5035365;28;20495;-77
2023/12/13 00:18:39;;;;;;;5.47;3.70;;;;;;;-2.37;100.00;100894.56;5035105;28;20030;-79
2023/12/13 00:21:05;;;;;;;5.88;3.83;;;;;;;-2.34;100.00;100900.56;5036959;28;20112;-78
2023/12/13 00:23:30;;;;;;;6.53;3.58;;;;;;;-2.31;100.00;100895.06;5039969;28;20064;-82
2023/12/13 00:25:56;;;;;;;6.15;4.05;;;;;;;-2.38;100.00;100887.63;5040573;28;20041;-76
2023/12/13 00:28:21;;;;;;;5.85;3.80;;;;;;;-2.37;100.00;100899.84;5039519;28;20041;-79
2023/12/13 00:30:46;;;;;;;14.27;4.35;;;;;;;-2.31;100.00;100901.19;5040549;28;20025;-73
2023/12/13 00:33:12;;;;;;;5.38;3.88;;;;;;;-2.34;100.00;100895.31;5040648;28;20040;-82
2023/12/13 00:35:38;;;;;;;6.20;4.13;;;;;;;-2.38;100.00;100895.53;5023156;28;20029;-79
2023/12/13 00:38:03;;;;;;;5.82;4.00;;;;;;;-2.38;100.00;100887.63;5023250;28;20037;-80
2023/12/13 00:40:29;;;;;;;5.78;3.85;;;;;;;-2.65;100.00;100847.47;5022881;28;20056;-77
2023/12/13 00:42:55;;;;;;;6.00;4.15;;;;;;;-2.39;100.00;100888.56;5056071;28;20056;-79
2023/12/13 00:45:21;;;;;;;5.28;3.40;;;;;;;-2.57;100.00;100857.47;5056217;28;20040;-77
2023/12/13 00:47:47;;;;;;;4.50;3.33;;;;;;;-2.39;100.00;100885.91;5056016;28;20484;-82
2023/12/13 00:50:12;;;;;;;5.53;3.47;;;;;;;-2.37;100.00;100893.72;5056068;28;20511;-79
2023/12/13 00:52:38;;;;;;;5.85;3.65;;;;;;;-2.32;100.00;100886.31;5056041;28;20040;-82
2023/12/13 00:55:04;;;;;;;5.00;3.60;;;;;;;-2.32;100.00;100896.00;5039388;28;20511;-83
2023/12/13 00:57:32;;;;;;;4.63;3.17;;;;;;;-2.37;100.00;100894.56;5040438;28;20034;-80
2023/12/13 00:59:57;;;;;;;5.60;3.25;;;;;;;-2.35;100.00;100883.91;5040304;28;20099;-80
2023/12/13 01:02:23;;;;;;;4.57;3.45;;;;;;;-2.48;100.00;100884.00;5039139;28;20025;-83
2023/12/13 01:04:48;;;;;;;5.47;3.30;;;;;;;-2.48;100.00;100881.34;5038871;28;20567;-81
2023/12/13 01:07:14;;;;;;;4.30;3.30;;;;;;;-2.58;100.00;100864.53;5038921;28;20057;-82
2023/12/13 01:09:39;;;;;;;4.80;3.10;;;;;;;-2.38;100.00;100889.41;5040143;28;20087;-80
2023/12/13 01:12:06;;;;;;;5.60;3.65;;;;;;;-2.44;100.00;100888.06;5055623;28;20045;-77
2023/12/13 01:14:32;;;;;;;4.80;3.15;;;;;;;-2.78;100.00;100836.16;5055247;28;20029;-73
2023/12/13 01:16:57;;;;;;;5.75;3.53;;;;;;;-2.39;100.00;100901.72;5039830;28;20025;-73
2023/12/13 01:19:24;;;;;;;5.40;3.50;;;;;;;-2.42;100.00;100898.47;5040627;28;20025;-78
2023/12/13 01:21:50;;;;;;;3.92;2.55;;;;;;;-2.37;100.00;100899.84;5040492;28;20033;-75
2023/12/13 01:24:16;;;;;;;5.35;3.30;;;;;;;-2.51;100.00;100871.03;5040449;28;20032;-77
2023/12/13 01:26:41;;;;;;;4.80;3.28;;;;;;;-2.41;100.00;100887.84;5040630;28;20080;-73
2023/12/13 01:29:06;;;;;;;4.63;3.00;;;;;;;-2.45;100.00;100891.66;5038966;28;20041;-80
2023/12/13 01:31:32;;;;;;;5.43;2.97;;;;;;;-2.46;100.00;100886.50;5055134;28;20041;-76
2023/12/13 01:33:58;;;;;;;4.13;2.80;;;;;;;-2.47;100.00;100893.56;5055173;28;20551;-81
2023/12/13 01:36:23;;;;;;;4.78;3.28;;;;;;;-2.49;100.00;100894.63;5036484;28;20025;-73
2023/12/13 01:38:50;;;;;;;4.90;2.85;;;;;;;-2.53;100.00;100901.91;5038160;28;20480;-80
2023/12/13 01:41:15;;;;;;;5.25;3.33;;;;;;;-2.54;100.00;100892.34;5053651;28;20073;-76
2023/12/13 01:43:42;;;;;;;5.25;3.25;;;;;;;-2.64;100.00;100881.63;5038695;28;20037;-80
2023/12/13 01:46:08;;;;;;;4.05;2.90;;;;;;;-2.51;100.00;100894.75;5039407;28;20045;-75
2023/12/13 01:48:34;;;;;;;5.22;2.63;;;;;;;-2.63;100.00;100870.13;5038880;28;20029;-74
2023/12/13 01:50:59;;;;;;;4.05;2.75;;;;;;;-2.50;100.00;100893.78;5039709;28;20028;-75
2023/12/13 01:53:26;;;;;;;5.93;3.08;;;;;;;-2.55;100.00;100897.69;5040334;28;20029;-79
2023/12/13 01:55:54;;;;;;;5.32;3.00;;;;;;;-2.61;100.00;100902.47;5038150;28;20053;-72
2023/12/13 01:58:20;;;;;;;4.80;2.80;;;;;;;-2.72;100.00;100872.59;5038751;28;20021;-79
2023/12/13 02:00:46;;;;;;;3.85;3.20;;;;;;;-2.75;100.00;100867.56;5038018;28;20029;-82
2023/12/13 02:03:13;;;;;;;4.13;2.83;;;;;;;-2.79;100.00;100871.38;5037459;28;20029;-83
2023/12/13 02:05:39;;;;;;;3.80;2.65;;;;;;;-2.63;100.00;100888.56;5038649;28;20029;-82
2023/12/13 02:08:05;;;;;;;3.80;2.45;;;;;;;-2.61;100.00;100891.94;5055523;28;20033;-82
2023/12/13 02:10:31;;;;;;;4.13;2.72;;;;;;;-2.55;100.00;100897.69;5057538;28;20108;-80
2023/12/13 02:12:56;;;;;;;4.82;2.90;;;;;;;-2.57;100.00;100897.81;5057138;28;20045;-79
2023/12/13 02:15:22;;;;;;;5.35;2.85;;;;;;;-2.75;100.00;100870.19;5040771;28;20040;-80
2023/12/13 02:17:54;;;;;;;4.32;3.00;;;;;;;-2.59;100.00;100902.34;5056641;28;20056;-81
2023/12/13 02:20:20;;;;;;;4.03;2.72;;;;;;;-2.57;100.00;100902.25;5041571;28;20032;-81
2023/12/13 02:22:46;;;;;;;4.35;2.92;;;;;;;-2.78;100.00;100870.41;5057188;28;20391;-76
2023/12/13 02:25:15;;;;;;;3.95;2.90;;;;;;;-2.56;100.00;100904.78;5057633;28;20025;-81
2023/12/13 02:27:44;;;;;;;5.60;2.80;;;;;;;-2.83;100.00;100855.78;5057986;28;20048;-79
2023/12/13 02:30:10;;;;;;;3.75;2.90;;;;;;;-2.69;100.00;100872.38;5057050;28;20400;-83
2023/12/13 02:32:37;;;;;;;3.90;2.72;;;;;;;-2.55;100.00;100890.66;5039935;28;20039;-79
2023/12/13 02:35:03;;;;;;;3.70;2.67;;;;;;;-2.55;100.00;100898.56;5039566;28;20499;-82
2023/12/13 02:37:28;;;;;;;4.28;2.60;;;;;;;-2.52;100.00;100894.84;5057347;28;20033;-83
2023/12/13 02:39:58;;;;;;;4.30;2.80;;;;;;;-2.53;100.00;100901.06;5039299;28;20064;-79
2023/12/13 02:42:24;;;;;;;4.38;2.50;;;;;;;-2.57;100.00;100889.09;5057032;28;20086;-79
2023/12/13 02:44:50;;;;;;;4.15;2.88;;;;;;;-2.51;100.00;100899.19;5056038;28;20438;-74
2023/12/13 02:47:17;;;;;;;3.70;2.80;;;;;;;-2.55;100.00;100900.34;5037307;28;20044;-81
2023/12/13 02:49:43;;;;;;;2.90;2.25;;;;;;;-2.48;100.00;100885.78;5056580;28;20036;-77
2023/12/13 02:52:08;;;;;;;4.47;2.55;;;;;;;-2.53;100.00;100885.28;5039750;28;20037;-77
2023/12/13 02:54:34;;;;;;;3.92;2.55;;;;;;;-2.55;100.00;100888.03;5056592;28;20025;-81
2023/12/13 02:56:59;;;;;;;4.30;2.80;;;;;;;-2.61;100.00;100865.59;5056880;28;20075;-76
2023/12/13 02:59:24;;;;;;;3.80;2.72;;;;;;;-2.67;100.00;100855.50;5057135;28;20036;-81
2023/12/13 03:01:50;;;;;;;3.67;2.92;;;;;;;-2.49;100.00;100882.28;5058400;28;20044;-81
2023/12/13 03:04:16;;;;;;;4.32;2.60;;;;;;;-2.53;100.00;100883.47;5057274;28;20040;-78
2023/12/13 03:06:41;;;;;;;3.67;2.50;;;;;;;-2.56;100.00;100881.06;5057913;28;20025;-81
2023/12/13 03:09:06;;;;;;;4.22;2.70;;;;;;;-2.60;100.00;100867.28;5039791;28;20029;-80
2023/12/13 03:11:32;;;;;;;7.50;3.35;;;;;;;-2.58;100.00;100882.13;5073028;28;20045;-83
2023/12/13 03:13:57;;;;;;;4.35;2.97;;;;;;;-2.62;100.00;100877.09;5056371;28;20128;-82
2023/12/13 03:16:24;;;;;;;3.75;2.72;;;;;;;-2.63;100.00;100871.94;5056841;28;20075;-82
2023/12/13 03:18:50;;;;;;;4.03;2.60;;;;;;;-2.73;100.00;100853.31;5056775;28;20055;-82
2023/12/13 03:21:15;;;;;;;4.38;2.80;;;;;;;-2.58;100.00;100884.75;5055982;28;20049;-83
2023/12/13 03:23:42;;;;;;;5.47;2.97;;;;;;;-2.77;100.00;100853.69;5040014;28;20029;-82
2023/12/13 03:26:07;;;;;;;4.32;2.78;;;;;;;-2.62;100.00;100873.59;5056789;28;20021;-81
2023/12/13 03:28:35;;;;;;;3.53;2.70;;;;;;;-2.77;100.00;100848.41;5057245;28;20033;-83
2023/12/13 03:31:10;;;;;;;4.07;2.70;;;;;;;-2.69;100.00;100867.94;5057511;28;20113;-82
2023/12/13 03:33:36;;;;;;;3.60;2.67;;;;;;;-2.93;100.00;100817.06;5055792;28;20052;-82
2023/12/13 03:36:02;;;;;;;4.13;2.88;;;;;;;-2.70;100.00;100875.97;5055651;28;20798;-81
2023/12/13 03:38:27;;;;;;;4.63;2.70;;;;;;;-2.85;100.00;100852.44;5038578;28;20395;-79
2023/12/13 03:40:53;;;;;;;4.03;2.58;;;;;;;-2.75;100.00;100851.75;5071229;28;20060;-80
2023/12/13 03:43:18;;;;;;;3.63;2.55;;;;;;;-2.75;100.00;100859.66;5042824;28;20029;-78
2023/12/13 03:45:43;;;;;;;4.80;2.85;;;;;;;-2.73;100.00;100863.03;5059514;28;20029;-81
2023/12/13 03:48:09;;;;;;;4.47;2.60;;;;;;;-2.71;100.00;100861.97;5058537;28;20032;-79
2023/12/13 03:50:35;;;;;;;4.28;2.50;;;;;;;-2.69;100.00;100867.09;5076917;28;20029;-76
2023/12/13 03:53:00;;;;;;;3.45;2.47;;;;;;;-2.77;100.00;100857.13;5058802;28;20096;-77
2023/12/13 03:55:26;;;;;;;4.00;2.33;;;;;;;-2.67;100.00;100878.38;5042290;28;20067;-83
2023/12/13 03:57:53;;;;;;;4.18;2.42;;;;;;;-2.71;100.00;100869.03;5041715;28;20028;-82
2023/12/13 04:00:18;;;;;;;4.15;2.80;;;;;;;-2.72;100.00;100873.44;5077182;28;20092;-79
2023/12/13 04:02:43;;;;;;;3.80;2.50;;;;;;;-2.73;100.00;100877.03;5042246;28;20063;-76
2023/12/13 04:05:09;;;;;;;3.28;2.58;;;;;;;-2.76;100.00;100871.16;5058849;28;20031;-79
2023/12/13 04:07:34;;;;;;;3.38;2.50;;;;;;;-2.74;100.00;100869.25;5042605;28;20478;-81
2023/12/13 04:09:59;;;;;;;3.95;2.72;;;;;;;-2.74;100.00;100875.34;5076880;28;20063;-81
2023/12/13 04:12:25;;;;;;;3.33;2.40;;;;;;;-2.84;100.00;100856.75;5059183;28;20028;-81
2023/12/13 04:14:50;;;;;;;4.15;2.70;;;;;;;-2.74;100.00;100871.88;5058935;28;20234;-79
2023/12/13 04:17:15;;;;;;;3.92;2.70;;;;;;;-2.90;100.00;100851.09;5058518;28;20086;-82
2023/12/13 04:19:41;;;;;;;3.00;2.25;;;;;;;-2.69;100.00;100882.91;5041342;28;20064;-82
2023/12/13 04:22:07;;;;;;;4.00;2.70;;;;;;;-2.76;100.00;100877.25;5042382;28;20040;-82
2023/12/13 04:24:32;;;;;;;3.20;2.63;;;;;;;-2.78;100.00;100878.31;5076379;28;20047;-82
2023/12/13 04:26:57;;;;;;;4.30;2.60;;;;;;;-2.79;100.00;100880.09;5058854;28;20044;-82
2023/12/13 04:29:24;;;;;;;3.72;2.67;;;;;;;-2.80;100.00;100875.78;5058449;28;20079;-83
2023/12/13 04:31:50;;;;;;;3.10;2.45;;;;;;;-2.79;100.00;100877.47;5058012;28;20032;-74
2023/12/13 04:34:15;;;;;;;3.45;2.80;;;;;;;-2.90;100.00;100854.56;5041359;28;20047;-83
2023/12/13 04:36:41;;;;;;;4.18;2.53;;;;;;;-3.16;100.00;100811.69;5041509;28;20028;-83
2023/12/13 04:39:06;;;;;;;3.40;2.60;;;;;;;-2.97;100.00;100840.16;5075950;28;20032;-82
2023/12/13 04:41:32;;;;;;;4.85;3.08;;;;;;;-2.84;100.00;100859.38;5041707;28;20076;-81
2023/12/13 04:43:57;;;;;;;4.32;2.75;;;;;;;-2.86;100.00;100857.81;5041271;28;20097;-82
2023/12/13 04:46:23;;;;;;;3.47;2.65;;;;;;;-2.87;100.00;100864.88;5041349;28;20119;-81
2023/12/13 04:48:48;;;;;;;4.40;2.85;;;;;;;-2.89;100.00;100858.84;5058126;28;20021;-82
2023/12/13 04:51:13;;;;;;;4.43;2.70;;;;;;;-2.89;100.00;100863.28;5041445;28;20063;-83
2023/12/13 04:53:39;;;;;;;3.78;2.85;;;;;;;-3.00;100.00;100835.13;5076081;28;20040;-79
2023/12/13 04:56:05;;;;;;;3.72;2.60;;;;;;;-2.88;100.00;100868.47;5058013;28;20025;-80
2023/12/13 04:58:31;;;;;;;2.90;2.40;;;;;;;-2.81;100.00;100862.72;5058504;28;20033;-79
2023/12/13 05:00:56;;;;;;;3.60;2.47;;;;;;;-2.79;100.00;100863.47;5076077;28;20028;-78
2023/12/13 05:03:21;;;;;;;4.68;2.65;;;;;;;-2.77;100.00;100861.56;5057239;28;20050;-82
2023/12/13 05:05:47;;;;;;;4.85;2.60;;;;;;;-2.99;100.00;100839.41;5058075;28;20032;-77
2023/12/13 05:08:12;;;;;;;4.28;2.78;;;;;;;-2.96;100.00;100833.94;5075567;28;20028;-70
2023/12/13 05:10:43;;;;;;;4.25;2.63;;;;;;;-2.78;100.00;100858.09;5027923;28;20031;-83
2023/12/13 05:13:09;;;;;;;3.75;2.67;;;;;;;-3.00;100.00;100835.13;5029104;28;20037;-75
2023/12/13 05:15:34;;;;;;;3.47;2.70;;;;;;;-2.83;100.00;100866.31;5060752;28;20025;-77
2023/12/13 05:18:00;;;;;;;4.00;2.80;;;;;;;-2.84;100.00;100861.19;5044227;28;20039;-78
2023/12/13 05:20:25;;;;;;;3.70;2.50;;;;;;;-2.86;100.00;100858.63;5061178;28;20043;-78
2023/12/13 05:22:50;;;;;;;4.00;2.72;;;;;;;-2.94;100.00;100842.56;5027645;28;20060;-74
2023/12/13 05:25:18;;;;;;;4.10;2.90;;;;;;;-2.81;100.00;100860.09;5062748;28;20028;-84
2023/12/13 05:27:52;;;;;;;3.92;2.60;;;;;;;-2.82;100.00;100856.63;5080929;28;20041;-82
2023/12/13 05:30:18;;;;;;;;;;;;;;;-2.85;100.00;100849.81;5080368;28;20066;-82
2023/12/13 05:32:43;;;;;;;3.83;2.40;;;;;;;-2.86;100.00;100856.00;5062751;28;20356;-85
2023/12/13 05:35:09;;;;;;;4.70;2.97;;;;;;;-2.84;100.00;100854.13;5046320;28;20051;-75
2023/12/13 05:37:34;;;;;;;3.63;2.83;;;;;;;-2.73;100.00;100852.50;5046095;28;20035;-79
2023/12/13 05:40:00;;;;;;;3.78;2.83;;;;;;;-2.79;100.00;100855.56;5045709;28;20040;-79
2023/12/13 05:42:25;;;;;;;3.30;2.67;;;;;;;-2.77;100.00;100851.03;5081014;28;20516;-82
2023/12/13 05:44:50;;;;;;;6.25;2.70;;;;;;;-2.84;100.00;100850.66;5061209;28;20040;-76
2023/12/13 05:47:16;;;;;;;4.00;2.97;;;;;;;-2.79;100.00;100845.88;5062479;28;20042;-79
2023/12/13 05:49:42;;;;;;;3.55;2.83;;;;;;;-2.79;100.00;100847.66;5078590;28;20025;-81
2023/12/13 05:52:08;;;;;;;3.95;2.88;;;;;;;-2.79;100.00;100845.88;5044997;28;20491;-78
2023/12/13 05:54:33;;;;;;;3.65;2.78;;;;;;;-2.78;100.00;100849.34;5060951;28;20044;-79
2023/12/13 05:56:59;;;;;;;4.93;3.05;;;;;;;-2.98;100.00;100821.81;5060547;28;20050;-76
2023/12/13 05:59:24;;;;;;;4.80;3.25;;;;;;;-2.86;100.00;100845.47;5028484;28;20029;-75
2023/12/13 06:01:50;;;;;;;4.38;2.88;;;;;;;-2.94;100.00;100820.69;5079112;28;20070;-73
2023/12/13 06:04:15;;;;;;;5.25;2.85;;;;;;;-2.78;100.00;100852.84;5059564;28;20058;-78
2023/12/13 06:06:44;;;;;;;3.70;2.70;;;;;;;-2.76;100.00;100860.63;5061914;28;20082;-79
2023/12/13 06:09:10;;;;;;;3.28;2.70;;;;;;;-2.72;100.00;100860.25;5081010;28;20028;-76
2023/12/13 06:11:36;;;;;;;4.15;2.95;;;;;;;-2.74;100.00;100874.53;5060986;28;20055;-74
2023/12/13 06:14:02;;;;;;;4.20;3.22;;;;;;;-2.76;100.00;100876.41;5077254;28;20025;-75
2023/12/13 06:16:28;;;;;;;4.45;2.55;;;;;;;-2.67;100.00;100873.94;5060094;28;20050;-72
2023/12/13 06:18:53;;;;;;;3.55;2.70;;;;;;;-2.79;100.00;100850.31;5043902;28;20036;-77
2023/12/13 06:21:18;;;;;;;3.78;2.55;;;;;;;-2.74;100.00;100877.16;5060071;28;20036;-73
2023/12/13 06:23:44;;;;;;;3.65;2.83;;;;;;;-2.73;100.00;100876.19;5060433;28;20471;-74
2023/12/13 06:26:09;;;;;;;2.92;2.42;;;;;;;-2.75;100.00;100872.81;5043478;28;20028;-80
2023/12/13 06:28:35;;;;;;;3.47;2.63;;;;;;;-2.74;100.00;100883.25;5060237;28;20093;-77
2023/12/13 06:31:00;;;;;;;3.83;2.60;;;;;;;-2.83;100.00;100870.75;5026185;28;20463;-78
2023/12/13 06:33:26;;;;;;;3.30;2.40;;;;;;;-2.74;100.00;100892.94;5077074;28;20016;-80
2023/12/13 06:35:52;;;;;;;4.05;2.53;;;;;;;-2.75;100.00;100888.63;5059709;28;20029;-79
2023/12/13 06:38:17;;;;;;;3.67;2.33;;;;;;;-2.68;100.00;100879.31;5060040;28;20035;-80
2023/12/13 06:40:43;;;;;;;3.72;2.80;;;;;;;-2.74;100.00;100875.34;5059596;28;20455;-76
2023/12/13 06:43:08;;;;;;;3.47;2.88;;;;;;;-2.70;100.00;100894.41;5077819;28;20024;-78
2023/12/13 06:45:34;;;;;;;3.75;3.00;;;;;;;-2.71;100.00;100895.38;5043375;28;20025;-77
2023/12/13 06:48:00;;;;;;;4.50;2.58;;;;;;;-2.74;100.00;100890.31;5059908;28;20036;-77
2023/12/13 06:50:25;;;;;;;3.58;2.58;;;;;;;-2.72;100.00;100898.94;5060290;28;20061;-74
2023/12/13 06:52:51;;;;;;;4.05;3.00;;;;;;;-2.77;100.00;100880.84;5077019;28;20145;-78
2023/12/13 06:55:18;;;;;;;3.05;2.60;;;;;;;-3.04;100.00;100840.72;5060271;28;20503;-77
2023/12/13 06:57:44;;;;;;;3.78;3.03;;;;;;;-2.87;100.00;100864.88;5077832;28;20043;-73
2023/12/13 07:00:09;;;;;;;4.30;2.83;;;;;;;-2.71;100.00;100896.19;5077539;28;20033;-79
2023/12/13 07:02:36;;;;;;;3.55;2.75;;;;;;;-2.73;100.00;100897.25;5058090;28;20048;-80
2023/12/13 07:05:01;;;;;;;3.63;2.53;;;;;;;-2.67;100.00;100908.19;5059388;28;20364;-75
2023/12/13 07:07:27;;;;;;;3.50;2.67;;;;;;;-2.67;100.00;100904.72;5071939;28;20112;-74
2023/12/13 07:09:52;;;;;;;3.72;2.63;;;;;;;-2.66;100.00;100911.66;5023644;28;20039;-76
2023/12/13 07:12:17;;;;;;;4.22;3.03;;;;;;;-2.63;100.00;100912.28;5024606;28;20091;-78
2023/12/13 07:14:43;;;;;;;4.03;2.63;;;;;;;-2.60;100.00;100924.38;5056942;28;20040;-79
2023/12/13 07:17:08;;;;;;;4.20;3.00;;;;;;;-2.59;100.00;100918.16;5040895;28;20039;-74
2023/12/13 07:19:34;;;;;;;3.88;3.08;;;;;;;-2.61;100.00;100925.34;5057498;28;20025;-75
2023/12/13 07:21:59;;;;;;;4.07;2.80;;;;;;;-2.79;100.00;100895.91;5057560;28;20024;-77
2023/12/13 07:24:26;;;;;;;4.43;2.97;;;;;;;-2.69;100.00;100914.50;5076834;28;20107;-76
2023/12/13 07:26:51;;;;;;;5.13;3.35;;;;;;;-2.64;100.00;100928.22;5076839;28;20028;-76
2023/12/13 07:29:17;;;;;;;5.00;3.20;;;;;;;-2.68;100.00;100926.72;5042488;28;20028;-77
2023/12/13 07:31:42;;;;;;;5.18;2.75;;;;;;;-2.68;100.00;100929.34;5076538;28;20032;-75
2023/12/13 07:34:11;;;;;;;3.88;3.13;;;;;;;-2.67;100.00;100925.78;5061788;28;20257;-71
2023/12/13 07:36:37;;;;;;;4.80;3.50;;;;;;;-2.65;100.00;100937.03;5061602;28;20047;-74
2023/12/13 07:39:03;;;;;;;4.10;3.00;;;;;;;-2.61;100.00;100941.16;5062390;28;20406;-72
2023/12/13 07:41:29;;;;;;;4.50;3.28;;;;;;;-2.63;100.00;100940.41;5063075;28;20048;-70
2023/12/13 07:43:55;;;;;;;3.78;2.95;;;;;;;-2.63;100.00;100935.97;5045853;28;20097;-73
2023/12/13 07:46:21;;;;;;;5.07;2.95;;;;;;;-2.75;100.00;100925.50;5026935;28;20456;-75
2023/12/13 07:48:46;;;;;;;5.43;3.38;;;;;;;-2.68;100.00;100937.25;5041723;28;20032;-75
2023/12/13 07:51:12;;;;;;;5.68;3.10;;;;;;;-2.66;100.00;100943.28;5042132;28;20028;-74
2023/12/13 07:53:38;;;;;;;4.35;2.97;;;;;;;-2.83;100.00;100924.25;5055883;28;20043;-72
2023/12/13 07:56:06;;;;;;;4.55;2.75;;;;;;;-2.73;100.00;100944.66;5042143;28;20033;-75
2023/12/13 07:58:31;;;;;;;4.15;2.90;;;;;;;-2.69;100.00;100940.84;5059321;28;20032;-75
2023/12/13 08:00:57;;;;;;;5.53;3.17;;;;;;;-2.74;100.00;100937.72;5025870;28;20041;-74
2023/12/13 08:03:22;;;;;;;6.78;3.65;;;;;;;-2.73;100.00;100955.19;5058825;28;20039;-78
2023/12/13 08:05:47;;;;;;;4.53;2.78;;;;;;;-2.84;100.00;100922.56;5058416;28;20035;-78
2023/12/13 08:08:14;;;;;;;5.63;3.40;;;;;;;-2.69;100.00;100952.22;5058107;28;20564;-74
2023/12/13 08:10:40;;;;;;;4.55;2.65;;;;;;;-2.74;100.00;100959.63;5059157;28;20123;-79
2023/12/13 08:13:06;;;;;;;5.40;3.30;;;;;;;-2.77;100.00;100959.00;5041475;28;20154;-77
2023/12/13 08:15:31;;;;;;;5.60;3.47;;;;;;;-2.74;100.00;100962.25;5041352;28;20079;-80
2023/12/13 08:17:57;;;;;;;4.30;2.97;;;;;;;-2.88;100.00;100936.91;5057896;28;20398;-76
2023/12/13 08:20:23;;;;;;;5.07;3.30;;;;;;;-2.75;100.00;100972.91;5058298;28;20047;-74
2023/12/13 08:22:48;;;;;;;4.50;3.25;;;;;;;-2.80;100.00;100959.22;5057780;28;20054;-74
2023/12/13 08:25:14;;;;;;;4.47;3.10;;;;;;;-2.98;100.00;100932.41;5057546;28;20469;-75
2023/12/13 08:27:39;;;;;;;5.47;3.00;;;;;;;-2.72;100.00;100964.78;5075534;28;20055;-73
2023/12/13 08:30:05;;;;;;;3.83;3.00;;;;;;;-2.74;100.00;100962.25;5058179;28;20029;-76
2023/12/13 08:32:31;;;;;;;6.28;3.15;;;;;;;-2.80;100.00;100952.16;5076303;28;20087;-78
2023/12/13 08:34:56;;;;;;;5.00;3.28;;;;;;;-2.90;100.00;100946.72;5058123;28;20495;-74
2023/12/13 08:37:23;;;;;;;5.05;3.03;;;;;;;-2.89;100.00;100952.81;5025697;28;20556;-74
2023/12/13 08:39:49;;;;;;;3.88;3.08;;;;;;;-2.87;100.00;100964.94;5041870;28;20071;-73
2023/12/13 08:42:14;;;;;;;5.93;3.40;;;;;;;-2.82;100.00;100980.38;5058483;28;20072;-74
2023/12/13 08:44:39;;;;;;;3.45;2.72;;;;;;;-2.87;100.00;100972.81;5044737;28;20479;-72
2023/12/13 08:47:05;;;;;;;4.38;3.08;;;;;;;-2.85;100.00;100970.94;5045302;28;20031;-73
2023/12/13 08:49:30;;;;;;;4.93;3.10;;;;;;;-2.98;100.00;100938.53;5062379;28;20028;-73
2023/12/13 08:51:55;;;;;;;4.75;3.28;;;;;;;-2.74;100.00;100988.59;5061850;28;20169;-77
2023/12/13 08:54:21;;;;;;;4.15;3.03;;;;;;;-2.99;100.00;100949.16;5062184;28;20031;-80
2023/12/13 08:56:46;;;;;;;4.90;3.35;;;;;;;-2.78;100.00;100981.88;5062070;28;20032;-79
2023/12/13 08:59:12;;;;;;;5.78;3.78;;;;;;;-2.80;100.00;100981.13;5079900;28;20032;-72
2023/12/13 09:01:38;;;;;;;5.85;3.30;;;;;;;-2.78;100.00;100979.25;5061736;28;20024;-77
2023/12/13 09:04:03;;;;;;;5.88;2.92;;;;;;;-2.80;100.00;100980.28;5079323;28;20786;-79
2023/12/13 09:06:28;;;;;;;4.50;2.67;;;;;;;-2.76;100.00;100992.28;5045298;28;20062;-75
2023/12/13 09:08:54;;;;;;;4.38;2.83;;;;;;;-2.94;100.00;100958.41;5079447;28;20035;-73
2023/12/13 09:11:21;;;;;;;6.95;3.10;;;;;;;-2.84;100.00;100975.25;5061885;28;20479;-77
2023/12/13 09:13:46;;;;;;;4.00;2.55;;;;;;;-2.72;100.00;100989.31;5044377;28;20154;-75
2023/12/13 09:16:12;;;;;;;4.50;2.70;;;;;;;-2.72;100.00;100996.38;5028258;28;20044;-78
2023/12/13 09:18:43;;;;;;;4.10;2.72;;;;;;;-2.66;100.00;100995.94;5061426;28;20025;-74
2023/12/13 09:21:09;;;;;;;4.25;2.70;;;;;;;-2.61;100.00;101002.59;5061101;28;20447;-78
2023/12/13 09:23:36;;;;;;;2.97;2.17;;;;;;;-2.68;100.00;100982.91;5061158;28;20043;-78
2023/12/13 09:26:04;;;;;;;3.50;2.50;;;;;;;-2.62;100.00;100994.78;5045256;28;20056;-71
2023/12/13 09:28:29;;;;;;;4.05;2.30;;;;;;;-2.81;100.00;100968.94;5079902;28;20037;-72
2023/12/13 09:30:55;;;;;;;2.70;1.90;;;;;;;-2.72;100.00;100980.56;5079783;28;20029;-71
2023/12/13 09:33:20;;;;;;;2.47;2.08;;;;;;;-2.64;100.00;100996.69;5061741;28;20021;-70
2023/12/13 09:35:45;;;;;;;3.00;1.70;;;;;;;-2.69;100.00;100988.25;5045114;28;20175;-72
2023/12/13 09:38:12;;;;;;;3.47;2.20;;;;;;;-2.56;100.00;101002.25;5062831;28;20061;-76
2023/12/13 09:40:39;;;;;;;8.90;2.53;;;;;;;-2.49;100.00;101006.13;5061020;28;20503;-71
2023/12/13 09:43:04;;;;;;;3.47;2.45;;;;;;;-2.56;100.00;101004.03;5062500;28;20028;-78
2023/12/13 09:45:31;;;;;;;3.88;2.13;;;;;;;-2.57;100.00;100997.94;5044738;28;20028;-71
2023/12/13 09:47:57;;;;;;;2.47;1.98;;;;;;;-2.48;100.00;101012.25;5045725;28;20120;-72
2023/12/13 09:50:26;;;;;;;2.90;2.08;;;;;;;-2.60;100.00;101008.69;5061753;28;20070;-74
2023/12/13 09:52:53;;;;;;;3.05;2.10;;;;;;;-2.63;100.00;101017.66;5044783;28;20525;-73
2023/12/13 09:55:20;;;;;;;3.03;2.22;;;;;;;-2.56;100.00;101015.41;5077826;28;20025;-74
2023/12/13 09:57:45;;;;;;;3.50;2.00;;;;;;;-2.57;100.00;101016.38;5061598;28;20031;-76
2023/12/13 10:00:12;;;;;;;3.53;2.05;;;;;;;-3.08;100.00;100940.09;5079404;28;20024;-74
2023/12/13 10:02:37;;;;;;;2.58;2.00;;;;;;;-2.52;100.00;101010.75;5078448;28;20116;-72
2023/12/13 10:05:05;;;;;;;2.50;1.77;;;;;;;-2.55;100.00;101013.63;5078528;28;20081;-72
2023/12/13 10:07:30;;;;;;;2.65;1.90;;;;;;;-2.75;100.00;100983.44;5060826;28;20021;-71
2023/12/13 10:09:56;;;;;;;2.70;1.95;;;;;;;-2.57;100.00;101015.53;5065305;28;20365;-73
2023/12/13 10:12:22;;;;;;;2.55;1.90;;;;;;;-2.60;100.00;101003.41;5048310;28;20082;-70
2023/12/13 10:14:47;;;;;;;2.47;1.70;;;;;;;-2.57;100.00;101013.75;5083068;28;20032;-69
2023/12/13 10:17:12;;;;;;;1.90;1.70;;;;;;;-2.62;100.00;101000.91;5063567;28;20104;-72
2023/12/13 10:19:40;;;;;;;2.47;1.80;;;;;;;-2.61;100.00;100996.47;5064595;28;20111;-69
2023/12/13 10:22:06;;;;;;;2.03;1.52;;;;;;;-2.60;100.00;100993.72;5081619;28;20024;-70
2023/12/13 10:24:32;;;;;;;2.55;1.60;;;;;;;-2.53;100.00;101022.25;5083682;28;20026;-70
2023/12/13 10:26:57;;;;;;;2.63;1.40;;;;;;;-2.54;100.00;101013.53;5084561;28;20032;-70
2023/12/13 10:29:23;;;;;;;4.88;1.40;;;;;;;-2.53;100.00;101009.94;5084955;28;20028;-70
2023/12/13 10:31:49;;;;;;;2.30;1.20;;;;;;;-2.53;100.00;101017.84;5067593;28;20031;-70
2023/12/13 10:34:15;;;;;;;2.45;1.30;;;;;;;-2.51;100.00;101012.47;5085276;28;20058;-70
2023/12/13 10:36:40;;;;;;;2.10;1.40;;;;;;;-2.43;100.00;101010.94;5067646;28;20055;-70
2023/12/13 10:39:07;;;;;;;2.13;1.40;;;;;;;-2.40;100.00;101016.00;5067169;28;20031;-70
2023/12/13 10:41:34;;;;;;;2.28;1.48;;;;;;;-2.39;100.00;101011.56;5063468;28;20052;-70
2023/12/13 10:44:02;;;;;;;1.35;1.10;;;;;;;-2.42;100.00;101017.94;5063988;28;20461;-74
2023/12/13 10:46:35;;;;;;;1.73;1.13;;;;;;;-2.44;100.00;101013.72;5065717;28;20024;-73
2023/12/13 10:49:03;;;;;;;1.45;1.00;;;;;;;-2.44;100.00;101014.53;5064201;28;20092;-72
2023/12/13 10:51:31;;;;;;;1.70;1.17;;;;;;;-2.38;100.00;101019.38;5048409;28;20116;-72
2023/12/13 10:53:58;;;;;;;2.13;1.05;;;;;;;-2.37;100.00;101013.16;5064342;28;20051;-72
2023/12/13 10:56:23;;;;;;;1.50;1.10;;;;;;;-2.40;100.00;101007.25;5048552;28;20029;-72
2023/12/13 10:58:50;;;;;;;1.65;1.20;;;;;;;-2.31;100.00;101013.66;5065181;28;20035;-73
2023/12/13 11:01:16;;;;;;;1.33;1.08;;;;;;;-2.30;100.00;101015.34;5046628;28;20093;-70
2023/12/13 11:03:47;;;;;;;1.50;1.05;;;;;;;-2.39;100.00;101012.41;5061359;28;20051;-72
2023/12/13 11:06:14;;;;;;;1.80;1.15;;;;;;;-2.56;100.00;100977.69;5053936;28;20479;-74
2023/12/13 11:08:41;;;;;;;1.52;1.00;;;;;;;-2.54;100.00;100986.34;5058425;28;20016;-78
2023/12/13 11:11:10;;;;;;;2.13;1.10;;;;;;;-2.24;100.00;101021.00;5039212;28;20059;-76